createdAt,value
2023-04-05T00:01:20.208Z,58.25
2023-04-05T00:03:48.674Z,58.87
2023-04-05T00:06:18.999Z,57.84
2023-04-05T00:08:50.032Z,59.48
2023-04-05T00:11:18.757Z,58.10
2023-04-05T00:13:46.679Z,58.14
2023-04-05T00:16:14.644Z,58.38
2023-04-05T00:18:49.801Z,57.88
2023-04-05T00:21:21.834Z,57.13
2023-04-05T00:23:51.431Z,58.46
2023-04-05T00:26:20.060Z,59.11
2023-04-05T00:28:53.126Z,58.27
2023-04-05T00:31:21.347Z,59.53
2023-04-05T00:33:49.261Z,59.86
2023-04-05T00:36:20.574Z,58.94
2023-04-05T00:38:49.818Z,57.73
2023-04-05T00:41:17.787Z,59.36
2023-04-05T00:43:46.354Z,59.25
2023-04-05T00:46:14.327Z,59.78
2023-04-05T00:48:42.448Z,58.43
2023-04-05T00:51:12.200Z,58.32
2023-04-05T00:53:43.061Z,62.63
2023-04-05T00:56:14.214Z,60.85
2023-04-05T00:58:43.103Z,59.18
2023-04-05T01:01:16.657Z,58.14
2023-04-05T01:03:48.935Z,59.52
2023-04-05T01:06:28.395Z,58.74
2023-04-05T01:09:06.411Z,58.28
2023-04-05T01:11:36.437Z,60.64
2023-04-05T01:14:04.409Z,60.88
2023-04-05T01:16:32.431Z,59.30
2023-04-05T01:19:00.306Z,58.23
2023-04-05T01:22:14.361Z,60.63
2023-04-05T01:25:06.835Z,60.47
2023-04-05T01:27:53.666Z,60.18
2023-04-05T01:30:27.970Z,60.20
2023-04-05T01:33:03.732Z,60.45
2023-04-05T01:35:41.492Z,62.50
2023-04-05T01:38:12.793Z,65.56
2023-04-05T01:40:44.813Z,65.83
2023-04-05T01:43:15.190Z,64.61
2023-04-05T01:45:46.413Z,63.20
2023-04-05T01:48:15.378Z,61.44
2023-04-05T01:50:44.217Z,61.84
2023-04-05T01:53:12.524Z,62.30
2023-04-05T01:55:40.553Z,62.86
2023-04-05T01:58:10.093Z,63.27
2023-04-05T02:00:39.144Z,63.43
2023-04-05T02:03:08.746Z,62.98
2023-04-05T02:05:37.286Z,62.33
2023-04-05T02:08:05.561Z,60.69
2023-04-05T02:10:33.440Z,61.46
2023-04-05T02:13:01.495Z,60.31
2023-04-05T02:15:31.241Z,60.76
2023-04-05T02:18:02.217Z,61.34
2023-04-05T02:20:33.056Z,63.45
2023-04-05T02:23:02.184Z,63.07
2023-04-05T02:25:30.309Z,64.03
2023-04-05T02:27:58.969Z,63.63
2023-04-05T02:30:29.434Z,64.02
2023-04-05T02:32:57.513Z,62.56
2023-04-05T02:35:26.759Z,62.41
2023-04-05T02:37:56.625Z,60.80
2023-04-05T02:40:25.334Z,60.74
2023-04-05T02:42:53.225Z,61.13
2023-04-05T02:45:21.137Z,61.52
2023-04-05T02:47:49.167Z,60.93
2023-04-05T02:50:20.392Z,60.23
2023-04-05T02:52:48.711Z,59.23
2023-04-05T02:55:18.464Z,58.62
2023-04-05T02:57:47.078Z,58.59
2023-04-05T03:00:38.423Z,57.96
2023-04-05T03:03:07.025Z,57.92
2023-04-05T03:05:39.919Z,58.71
2023-04-05T03:08:08.520Z,58.06
2023-04-05T03:10:40.384Z,58.31
2023-04-05T03:13:30.242Z,57.66
2023-04-05T03:15:59.311Z,59.77
2023-04-05T03:18:30.591Z,61.79
2023-04-05T03:21:06.192Z,62.38
2023-04-05T03:23:39.817Z,61.98
2023-04-05T03:26:10.376Z,61.03
2023-04-05T03:28:44.924Z,61.22
2023-04-05T03:31:13.515Z,60.98
2023-04-05T03:33:42.094Z,60.97
2023-04-05T03:36:11.170Z,62.82
2023-04-05T03:38:42.530Z,65.04
2023-04-05T03:41:17.318Z,65.77
2023-04-05T03:43:45.474Z,65.28
2023-04-05T03:46:14.133Z,65.32
2023-04-05T03:48:42.442Z,65.14
2023-04-05T03:51:11.176Z,64.44
2023-04-05T03:53:39.170Z,64.02
2023-04-05T03:56:08.273Z,65.10
2023-04-05T03:58:50.497Z,65.52
2023-04-05T04:01:24.184Z,64.46
2023-04-05T04:03:52.036Z,66.01
2023-04-05T04:06:19.961Z,66.23
2023-04-05T04:08:47.982Z,65.23
2023-04-05T04:11:16.300Z,65.23
2023-04-05T04:13:44.469Z,65.82
2023-04-05T04:16:39.154Z,65.11
2023-04-05T04:19:32.375Z,67.34
2023-04-05T04:22:26.671Z,68.07
2023-04-05T04:25:18.861Z,67.13
2023-04-05T04:28:06.702Z,67.73
2023-04-05T04:30:54.862Z,67.82
2023-04-05T04:33:43.657Z,66.88
2023-04-05T04:36:14.666Z,66.14
2023-04-05T04:39:08.923Z,65.99
2023-04-05T04:41:54.987Z,65.95
2023-04-05T04:44:31.309Z,67.52
2023-04-05T04:47:23.073Z,67.95
2023-04-05T04:50:12.177Z,68.21
2023-04-05T04:52:41.145Z,69.32
2023-04-05T04:55:13.676Z,69.96
2023-04-05T04:57:41.860Z,70.10
2023-04-05T05:00:15.419Z,70.72
2023-04-05T05:02:44.284Z,70.30
2023-04-05T05:05:16.452Z,70.38
2023-04-05T05:07:44.476Z,69.59
2023-04-05T05:10:16.316Z,69.20
2023-04-05T05:12:48.627Z,68.88
2023-04-05T05:15:17.048Z,68.89
2023-04-05T05:17:45.749Z,68.29
2023-04-05T05:20:14.012Z,67.62
2023-04-05T05:22:47.702Z,67.12
2023-04-05T05:25:16.926Z,66.83
2023-04-05T05:27:51.144Z,66.91
2023-04-05T05:30:23.357Z,67.95
2023-04-05T05:32:52.863Z,67.97
2023-04-05T05:35:21.115Z,70.34
2023-04-05T05:37:51.400Z,70.52
2023-04-05T05:40:19.476Z,69.90
2023-04-05T05:42:47.422Z,69.82
2023-04-05T05:45:15.454Z,69.35
2023-04-05T05:47:43.304Z,70.36
2023-04-05T05:50:11.986Z,69.91
2023-04-05T05:52:39.843Z,69.97
2023-04-05T05:55:09.932Z,70.18
2023-04-05T05:57:39.757Z,68.92
2023-04-05T06:00:10.790Z,67.42
2023-04-05T06:02:44.120Z,67.28
2023-04-05T06:05:12.262Z,66.90
2023-04-05T06:07:40.361Z,66.55
2023-04-05T06:10:10.450Z,66.06
2023-04-05T06:12:38.327Z,66.06
2023-04-05T06:15:07.473Z,67.14
2023-04-05T06:17:41.807Z,68.27
2023-04-05T06:20:11.601Z,67.96
2023-04-05T06:22:40.358Z,66.01
2023-04-05T06:25:12.907Z,66.03
2023-04-05T06:27:41.395Z,65.07
2023-04-05T06:30:10.130Z,66.29
2023-04-05T06:32:38.024Z,67.66
2023-04-05T06:35:09.298Z,69.48
2023-04-05T06:37:37.228Z,67.12
2023-04-05T06:40:06.047Z,67.49
2023-04-05T06:42:35.400Z,66.61
2023-04-05T06:45:07.436Z,66.51
2023-04-05T06:47:36.627Z,63.98
2023-04-05T06:50:06.857Z,63.33
2023-04-05T06:52:36.074Z,62.13
2023-04-05T06:55:05.538Z,61.17
2023-04-05T06:57:35.984Z,59.99
2023-04-05T07:00:08.935Z,59.81
2023-04-05T07:02:37.386Z,60.09
2023-04-05T07:05:07.266Z,59.08
2023-04-05T07:07:35.561Z,59.86
2023-04-05T07:10:03.959Z,60.13
2023-04-05T07:12:31.904Z,60.49
2023-04-05T07:15:02.513Z,60.67
2023-04-05T07:17:30.812Z,59.62
2023-04-05T07:19:59.354Z,58.03
2023-04-05T07:22:28.558Z,58.50
2023-04-05T07:24:56.625Z,56.83
2023-04-05T07:27:25.070Z,56.51
2023-04-05T07:29:53.939Z,53.54
2023-04-05T07:32:23.176Z,55.11
2023-04-05T07:34:51.993Z,54.29
2023-04-05T07:37:21.532Z,55.01
2023-04-05T07:39:50.344Z,53.75
2023-04-05T07:42:21.374Z,52.71
2023-04-05T07:44:50.274Z,52.65
2023-04-05T07:47:19.105Z,53.43
2023-04-05T07:49:48.709Z,51.84
2023-04-05T07:52:16.844Z,51.07
2023-04-05T07:54:46.100Z,50.23
2023-04-05T07:57:18.563Z,49.68
2023-04-05T07:59:48.130Z,49.03
2023-04-05T08:02:16.916Z,48.86
2023-04-05T08:04:46.025Z,49.11
2023-04-05T08:07:18.929Z,47.52
2023-04-05T08:09:49.539Z,46.16
2023-04-05T08:12:18.469Z,46.93
2023-04-05T08:14:46.844Z,45.24
2023-04-05T08:17:15.632Z,45.06
2023-04-05T08:19:44.491Z,42.59
2023-04-05T08:22:13.967Z,44.82
2023-04-05T08:24:43.829Z,45.15
2023-04-05T08:27:13.109Z,43.54
2023-04-05T08:29:41.629Z,40.77
2023-04-05T08:32:10.767Z,40.83
2023-04-05T08:34:39.585Z,43.55
2023-04-05T08:37:08.331Z,39.52
2023-04-05T08:39:37.310Z,40.65
2023-04-05T08:42:13.028Z,40.50
2023-04-05T08:44:42.620Z,38.88
2023-04-05T08:47:15.242Z,39.00
2023-04-05T08:49:45.595Z,36.68
2023-04-05T08:52:14.608Z,39.96
2023-04-05T08:54:42.710Z,41.46
2023-04-05T08:57:19.740Z,38.13
2023-04-05T08:59:50.070Z,37.18
2023-04-05T09:02:25.058Z,40.36
2023-04-05T09:04:54.880Z,37.73
2023-04-05T09:07:24.014Z,39.12
2023-04-05T09:09:57.547Z,35.38
2023-04-05T09:12:28.990Z,36.19
2023-04-05T09:15:01.271Z,34.80
2023-04-05T09:17:33.909Z,34.27
2023-04-05T09:20:13.388Z,36.68
2023-04-05T09:22:51.944Z,36.75
2023-04-05T09:25:55.023Z,34.90
2023-04-05T09:28:37.707Z,32.59
2023-04-05T09:31:09.113Z,34.06
2023-04-05T09:33:37.831Z,33.39
2023-04-05T09:36:07.487Z,32.78
2023-04-05T09:38:48.378Z,35.04
2023-04-05T09:41:17.162Z,34.88
2023-04-05T09:43:48.496Z,36.23
2023-04-05T09:46:32.381Z,34.74
2023-04-05T09:49:01.597Z,34.20
2023-04-05T09:51:37.877Z,35.47
2023-04-05T09:54:10.365Z,35.81
2023-04-05T09:56:41.704Z,36.15
2023-04-05T09:59:12.577Z,36.17
2023-04-05T10:01:46.251Z,35.29
2023-04-05T10:04:15.125Z,35.84
2023-04-05T10:06:44.004Z,35.48
2023-04-05T10:09:15.237Z,36.04
2023-04-05T10:11:45.252Z,34.47
2023-04-05T10:14:16.314Z,34.59
2023-04-05T10:16:53.042Z,35.33
2023-04-05T10:19:29.521Z,34.20
2023-04-05T10:22:04.254Z,34.57
2023-04-05T10:24:41.773Z,34.62
2023-04-05T10:27:19.612Z,33.81
2023-04-05T10:29:55.912Z,32.80
2023-04-05T10:32:37.299Z,35.04
2023-04-05T10:35:12.059Z,34.74
2023-04-05T10:37:52.775Z,33.25
2023-04-05T10:40:23.693Z,34.73
2023-04-05T10:42:54.026Z,33.35
2023-04-05T10:45:25.370Z,32.70
2023-04-05T10:47:59.890Z,33.40
2023-04-05T10:50:28.114Z,34.71
2023-04-05T10:52:59.541Z,34.63
2023-04-05T10:55:28.162Z,35.22
2023-04-05T10:57:57.687Z,33.89
2023-04-05T11:00:30.107Z,33.04
2023-04-05T11:02:58.747Z,32.50
2023-04-05T11:05:32.616Z,32.16
2023-04-05T11:08:05.818Z,31.84
2023-04-05T11:10:38.594Z,34.08
2023-04-05T11:13:10.978Z,35.13
2023-04-05T11:15:42.634Z,35.76
2023-04-05T11:18:23.444Z,35.92
2023-04-05T11:20:56.172Z,34.52
2023-04-05T11:23:26.920Z,35.44
2023-04-05T11:25:57.903Z,33.77
2023-04-05T11:28:39.786Z,33.33
2023-04-05T11:31:18.555Z,32.79
2023-04-05T11:34:10.451Z,32.59
2023-04-05T11:36:42.269Z,34.65
2023-04-05T11:39:28.153Z,35.58
2023-04-05T11:41:59.906Z,34.33
2023-04-05T11:44:29.527Z,33.20
2023-04-05T11:46:59.107Z,32.80
2023-04-05T11:49:27.033Z,33.32
2023-04-05T11:51:56.299Z,33.77
2023-04-05T11:54:32.038Z,31.90
2023-04-05T11:57:01.797Z,33.02
2023-04-05T11:59:35.183Z,33.57
2023-04-05T12:02:35.905Z,33.27
2023-04-05T12:05:32.887Z,33.19
2023-04-05T12:08:23.425Z,32.87
2023-04-05T12:11:02.287Z,34.27
2023-04-05T12:13:50.938Z,31.65
2023-04-05T12:16:19.378Z,32.86
2023-04-05T12:18:55.570Z,33.42
2023-04-05T12:21:25.969Z,34.34
2023-04-05T12:23:55.670Z,32.67
2023-04-05T12:26:25.360Z,32.91
2023-04-05T12:28:54.646Z,31.55
2023-04-05T12:31:42.010Z,31.93
2023-04-05T12:34:25.891Z,33.33
2023-04-05T12:36:53.980Z,31.52
2023-04-05T12:39:22.959Z,33.14
2023-04-05T12:42:00.495Z,32.72
2023-04-05T12:44:33.201Z,33.08
2023-04-05T12:47:03.864Z,33.01
2023-04-05T12:49:38.613Z,35.44
2023-04-05T12:52:08.885Z,33.61
2023-04-05T12:54:36.697Z,32.41
2023-04-05T12:57:08.741Z,31.58
2023-04-05T12:59:37.075Z,32.36
2023-04-05T13:02:05.812Z,31.56
2023-04-05T13:04:35.408Z,31.37
2023-04-05T13:07:03.624Z,32.97
2023-04-05T13:09:32.794Z,33.46
2023-04-05T13:12:01.345Z,31.52
2023-04-05T13:14:29.352Z,31.16
2023-04-05T13:16:57.333Z,30.43
2023-04-05T13:19:25.460Z,30.14
2023-04-05T13:21:54.716Z,31.36
2023-04-05T13:24:22.624Z,30.79
2023-04-05T13:26:50.548Z,30.98
2023-04-05T13:29:18.613Z,30.46
2023-04-05T13:31:46.514Z,32.40
2023-04-05T13:34:14.474Z,32.10
2023-04-05T13:36:42.434Z,34.35
2023-04-05T13:39:12.003Z,33.66
2023-04-05T13:41:40.290Z,34.14
2023-04-05T13:44:08.205Z,34.31
2023-04-05T13:46:36.577Z,33.28
2023-04-05T13:49:04.661Z,33.01
2023-04-05T13:51:34.866Z,32.39
2023-04-05T13:54:03.129Z,32.69
2023-04-05T13:56:32.641Z,33.22
2023-04-05T13:59:05.132Z,33.72
2023-04-05T14:01:34.999Z,32.67
2023-04-05T14:04:03.265Z,32.34
2023-04-05T14:06:31.191Z,32.42
2023-04-05T14:08:59.159Z,32.42
2023-04-05T14:11:29.213Z,32.28
2023-04-05T14:13:58.847Z,33.81
2023-04-05T14:16:27.048Z,32.70
2023-04-05T14:18:55.213Z,32.38
2023-04-05T14:21:23.403Z,33.04
2023-04-05T14:23:54.271Z,33.28
2023-04-05T14:26:22.415Z,32.88
2023-04-05T14:28:50.544Z,33.21
2023-04-05T14:31:20.875Z,32.66
2023-04-05T14:33:48.848Z,32.47
2023-04-05T14:36:16.843Z,32.93
2023-04-05T14:38:44.839Z,32.07
2023-04-05T14:41:12.999Z,31.81
2023-04-05T14:43:41.915Z,32.43
2023-04-05T14:46:11.296Z,31.62
2023-04-05T14:48:41.175Z,30.79
2023-04-05T14:51:09.307Z,30.21
2023-04-05T14:53:37.353Z,29.90
2023-04-05T14:56:06.079Z,30.69
2023-04-05T14:58:34.366Z,29.41
2023-04-05T15:01:03.755Z,30.80
2023-04-05T15:03:32.195Z,30.49
2023-04-05T15:06:01.927Z,31.65
2023-04-05T15:08:30.680Z,31.09
2023-04-05T15:11:00.111Z,32.01
2023-04-05T15:13:29.098Z,32.30
2023-04-05T15:15:57.598Z,32.53
2023-04-05T15:18:25.692Z,32.98
2023-04-05T15:20:53.797Z,33.29
2023-04-05T15:23:23.356Z,32.18
2023-04-05T15:25:51.455Z,32.54
2023-04-05T15:28:19.463Z,32.26
2023-04-05T15:30:47.895Z,31.95
2023-04-05T15:33:16.011Z,31.94
2023-04-05T15:35:44.365Z,31.69
2023-04-05T15:38:12.594Z,33.24
2023-04-05T15:40:42.484Z,33.44
2023-04-05T15:43:11.275Z,33.21
2023-04-05T15:45:45.629Z,33.54
2023-04-05T15:48:17.074Z,33.36
2023-04-05T15:50:45.332Z,34.18
2023-04-05T15:53:16.124Z,34.86
2023-04-05T15:55:47.146Z,33.91
2023-04-05T15:58:16.449Z,33.56
2023-04-05T16:00:45.050Z,33.68
2023-04-05T16:03:14.628Z,33.57
2023-04-05T16:05:58.577Z,33.65
2023-04-05T16:08:44.832Z,33.43
2023-04-05T16:11:16.799Z,33.13
2023-04-05T16:13:45.619Z,33.46
2023-04-05T16:16:34.758Z,34.13
2023-04-05T16:19:19.046Z,33.01
2023-04-05T16:21:50.611Z,33.22
2023-04-05T16:24:19.972Z,33.93
2023-04-05T16:26:56.931Z,33.73
2023-04-05T16:29:40.217Z,33.95
2023-04-05T16:32:18.251Z,35.39
2023-04-05T16:35:14.473Z,34.39
2023-04-05T16:38:10.567Z,34.72
2023-04-05T16:40:49.648Z,34.49
2023-04-05T16:43:21.709Z,34.04
2023-04-05T16:45:50.799Z,33.41
2023-04-05T16:48:19.712Z,33.92
2023-04-05T16:50:58.482Z,33.78
2023-04-05T16:53:58.100Z,34.44
2023-04-05T16:56:37.378Z,34.85
2023-04-05T16:59:09.643Z,35.41
2023-04-05T17:01:39.013Z,35.60
2023-04-05T17:04:08.360Z,36.04
2023-04-05T17:06:37.105Z,37.17
2023-04-05T17:09:07.942Z,38.06
2023-04-05T17:11:36.795Z,37.71
2023-04-05T17:14:14.529Z,37.23
2023-04-05T17:17:03.061Z,37.86
2023-04-05T17:19:31.684Z,37.97
2023-04-05T17:22:03.122Z,36.77
2023-04-05T17:24:36.003Z,37.41
2023-04-05T17:27:04.550Z,38.31
2023-04-05T17:29:34.467Z,37.93
2023-04-05T17:32:04.096Z,37.81
2023-04-05T17:34:34.956Z,38.19
2023-04-05T17:37:04.542Z,38.53
2023-04-05T17:39:38.142Z,39.12
2023-04-05T17:42:22.258Z,39.08
2023-04-05T17:45:15.272Z,39.56
2023-04-05T17:48:12.813Z,39.50
2023-04-05T17:50:48.224Z,39.26
2023-04-05T17:53:18.907Z,39.45
2023-04-05T17:55:51.578Z,39.32
2023-04-05T17:58:22.604Z,39.39
2023-04-05T18:00:54.764Z,39.64
2023-04-05T18:03:26.308Z,39.59
2023-04-05T18:05:57.717Z,40.00
2023-04-05T18:08:31.013Z,40.34
2023-04-05T18:11:01.108Z,40.50
2023-04-05T18:13:32.028Z,40.39
2023-04-05T18:16:01.967Z,40.51
2023-04-05T18:18:30.630Z,40.95
2023-04-05T18:21:02.025Z,41.31
2023-04-05T18:23:30.741Z,41.62
2023-04-05T18:26:05.231Z,41.08
2023-04-05T18:28:34.471Z,42.11
2023-04-05T18:31:04.462Z,41.71
2023-04-05T18:33:41.106Z,41.63
2023-04-05T18:36:19.860Z,42.14
2023-04-05T18:39:16.758Z,42.30
2023-04-05T18:42:05.117Z,41.43
2023-04-05T18:44:34.517Z,42.01
2023-04-05T18:47:09.464Z,44.51
2023-04-05T18:49:46.423Z,43.60
2023-04-05T18:52:17.889Z,43.80
2023-04-05T18:54:50.057Z,44.04
2023-04-05T18:57:19.003Z,43.74
2023-04-05T18:59:51.376Z,43.95
2023-04-05T19:02:21.481Z,44.50
2023-04-05T19:04:53.678Z,45.43
2023-04-05T19:07:24.988Z,45.60
2023-04-05T19:09:55.077Z,45.60
2023-04-05T19:12:28.774Z,44.93
2023-04-05T19:14:58.015Z,45.08
2023-04-05T19:17:31.209Z,46.20
2023-04-05T19:19:59.898Z,46.91
2023-04-05T19:22:34.743Z,47.50
2023-04-05T19:25:05.712Z,47.23
2023-04-05T19:27:43.522Z,47.25
2023-04-05T19:30:33.388Z,46.99
2023-04-05T19:33:13.712Z,47.31
2023-04-05T19:35:45.896Z,47.41
2023-04-05T19:38:21.899Z,47.94
2023-04-05T19:40:55.906Z,47.57
2023-04-05T19:43:33.542Z,47.49
2023-04-05T19:46:02.457Z,47.72
2023-04-05T19:48:41.170Z,48.33
2023-04-05T19:51:10.996Z,49.67
2023-04-05T19:53:45.340Z,50.35
2023-04-05T19:56:17.462Z,50.20
2023-04-05T19:58:48.256Z,49.48
2023-04-05T20:01:32.601Z,50.08
2023-04-05T20:04:03.548Z,50.02
2023-04-05T20:06:36.162Z,50.32
2023-04-05T20:09:07.890Z,49.77
2023-04-05T20:11:36.287Z,49.69
2023-04-05T20:14:07.513Z,50.31
2023-04-05T20:16:38.860Z,50.56
2023-04-05T20:19:29.225Z,50.54
2023-04-05T20:21:59.697Z,50.58
2023-04-05T20:24:28.167Z,50.46
2023-04-05T20:26:57.888Z,50.67
2023-04-05T20:29:27.983Z,50.98
2023-04-05T20:31:58.935Z,51.92
2023-04-05T20:34:31.957Z,51.62
2023-04-05T20:37:01.912Z,50.00
2023-04-05T20:39:31.545Z,50.52
2023-04-05T20:42:01.936Z,50.56
2023-04-05T20:44:30.232Z,50.23
2023-04-05T20:46:58.629Z,49.92
2023-04-05T20:49:30.918Z,49.70
2023-04-05T20:51:59.736Z,50.06
2023-04-05T20:54:28.099Z,50.34
2023-04-05T20:56:56.866Z,50.39
2023-04-05T20:59:26.405Z,50.09
2023-04-05T21:01:54.905Z,50.33
2023-04-05T21:04:23.347Z,50.34
2023-04-05T21:06:52.888Z,50.62
2023-04-05T21:09:21.221Z,51.54
2023-04-05T21:11:49.651Z,51.22
2023-04-05T21:14:17.773Z,50.82
2023-04-05T21:16:45.933Z,51.50
2023-04-05T21:19:14.383Z,51.44
2023-04-05T21:21:42.559Z,51.22
2023-04-05T21:24:12.586Z,51.14
2023-04-05T21:26:40.908Z,51.28
2023-04-05T21:29:09.507Z,51.52
2023-04-05T21:31:37.787Z,51.47
2023-04-05T21:34:06.362Z,51.83
2023-04-05T21:36:34.509Z,52.23
2023-04-05T21:39:02.780Z,52.62
2023-04-05T21:41:33.662Z,52.50
2023-04-05T21:44:02.184Z,52.70
2023-04-05T21:46:32.861Z,53.48
2023-04-05T21:49:01.090Z,53.66
2023-04-05T21:51:29.710Z,53.87
2023-04-05T21:53:57.986Z,54.24
2023-04-05T21:56:26.076Z,54.21
2023-04-05T21:58:58.787Z,53.62
2023-04-05T22:01:27.175Z,53.65
2023-04-05T22:03:55.688Z,53.64
2023-04-05T22:06:24.023Z,55.17
2023-04-05T22:08:53.910Z,54.61
2023-04-05T22:11:23.724Z,54.60
2023-04-05T22:13:52.537Z,55.93
2023-04-05T22:16:23.107Z,55.67
2023-04-05T22:18:51.450Z,54.43
2023-04-05T22:21:23.450Z,53.99
2023-04-05T22:23:51.879Z,54.81
2023-04-05T22:26:20.092Z,54.67
2023-04-05T22:28:48.276Z,57.04
2023-04-05T22:31:16.734Z,56.45
2023-04-05T22:33:46.531Z,55.65
2023-04-05T22:36:15.154Z,55.90
2023-04-05T22:38:43.444Z,55.57
2023-04-05T22:41:12.074Z,54.88
2023-04-05T22:43:40.278Z,56.03
2023-04-05T22:46:08.829Z,55.83
2023-04-05T22:48:37.322Z,56.13
2023-04-05T22:51:08.828Z,57.12
2023-04-05T22:53:37.265Z,55.85
2023-04-05T22:56:06.127Z,55.82
2023-04-05T22:58:34.336Z,56.05
2023-04-05T23:01:03.216Z,56.50
2023-04-05T23:03:31.925Z,56.81
2023-04-05T23:06:00.123Z,56.73
2023-04-05T23:08:29.786Z,56.75
2023-04-05T23:10:58.052Z,56.30
2023-04-05T23:13:26.136Z,56.19
2023-04-05T23:15:54.365Z,56.76
2023-04-05T23:18:23.206Z,56.90
2023-04-05T23:20:51.799Z,58.31
2023-04-05T23:23:19.888Z,57.64
2023-04-05T23:25:49.534Z,58.21
2023-04-05T23:28:17.918Z,57.97
2023-04-05T23:30:49.447Z,57.64
2023-04-05T23:33:17.469Z,59.31
2023-04-05T23:35:46.125Z,59.87
2023-04-05T23:38:14.222Z,60.61
2023-04-05T23:40:42.277Z,59.05
2023-04-05T23:43:12.103Z,58.64
2023-04-05T23:45:43.231Z,59.06
2023-04-05T23:48:11.457Z,59.28
2023-04-05T23:50:39.628Z,59.79
2023-04-05T23:53:08.001Z,59.78
2023-04-05T23:55:40.382Z,59.09
2023-04-05T23:58:09.041Z,59.49
